createdAt,value
2023-04-04T00:00:50.494Z,400.0000
2023-04-04T00:01:51.582Z,400.0000
2023-04-04T00:02:52.759Z,400.0000
2023-04-04T00:03:54.109Z,400.0000
2023-04-04T00:04:54.853Z,400.0000
2023-04-04T00:05:55.969Z,400.0000
2023-04-04T00:06:57.047Z,400.0000
2023-04-04T00:07:58.151Z,400.0000
2023-04-04T00:08:59.218Z,400.0000
2023-04-04T00:10:00.342Z,400.0000
2023-04-04T00:11:01.482Z,400.0000
2023-04-04T00:12:02.513Z,400.0000
2023-04-04T00:13:03.619Z,400.0000
2023-04-04T00:14:04.703Z,400.0000
2023-04-04T00:15:05.863Z,400.0000
2023-04-04T00:16:06.956Z,400.0000
2023-04-04T00:17:07.979Z,400.0000
2023-04-04T00:18:09.087Z,400.0000
2023-04-04T00:19:10.141Z,400.0000
2023-04-04T00:20:11.259Z,400.0000
2023-04-04T00:21:12.363Z,400.0000
2023-04-04T00:22:13.433Z,400.0000
2023-04-04T00:23:14.537Z,400.0000
2023-04-04T00:24:15.625Z,400.0000
2023-04-04T00:25:16.704Z,400.0000
2023-04-04T00:26:17.832Z,400.0000
2023-04-04T00:27:18.922Z,400.0000
2023-04-04T00:28:19.997Z,400.0000
2023-04-04T00:29:21.084Z,400.0000
2023-04-04T00:30:22.211Z,400.0000
2023-04-04T00:31:23.685Z,400.0000
2023-04-04T00:32:24.405Z,400.0000
2023-04-04T00:33:25.503Z,400.0000
2023-04-04T00:34:26.566Z,400.0000
2023-04-04T00:35:27.659Z,400.0000
2023-04-04T00:36:28.785Z,400.0000
2023-04-04T00:37:29.842Z,400.0000
2023-04-04T00:38:30.949Z,400.0000
2023-04-04T00:39:32.028Z,400.0000
2023-04-04T00:40:33.133Z,400.0000
2023-04-04T00:41:34.242Z,400.0000
2023-04-04T00:42:35.344Z,400.0000
2023-04-04T00:43:36.432Z,400.0000
2023-04-04T00:44:37.526Z,400.0000
2023-04-04T00:45:38.618Z,400.0000
2023-04-04T00:46:39.762Z,400.0000
2023-04-04T00:47:40.854Z,400.0000
2023-04-04T00:48:41.914Z,400.0000
2023-04-04T00:49:42.993Z,400.0000
2023-04-04T00:50:44.103Z,400.0000
2023-04-04T00:51:45.194Z,400.0000
2023-04-04T00:52:46.324Z,400.0000
2023-04-04T00:53:47.354Z,400.0000
2023-04-04T00:54:48.472Z,400.0000
2023-04-04T00:55:49.558Z,400.0000
2023-04-04T00:56:50.685Z,400.0000
2023-04-04T00:57:51.743Z,400.0000
2023-04-04T00:58:52.908Z,400.0000
2023-04-04T00:59:53.938Z,400.0000
2023-04-04T01:00:55.100Z,400.0000
2023-04-04T01:01:56.206Z,400.0000
2023-04-04T01:02:57.277Z,400.0000
2023-04-04T01:03:58.354Z,400.0000
2023-04-04T01:04:59.443Z,400.0000
2023-04-04T01:06:00.524Z,400.0000
2023-04-04T01:07:01.651Z,400.0000
2023-04-04T01:08:02.726Z,400.0000
2023-04-04T01:09:03.839Z,400.0000
2023-04-04T01:10:04.947Z,400.0000
2023-04-04T01:11:06.014Z,400.0000
2023-04-04T01:12:07.156Z,400.0000
2023-04-04T01:13:08.237Z,400.0000
2023-04-04T01:14:09.310Z,400.0000
2023-04-04T01:15:10.396Z,400.0000
2023-04-04T01:16:11.545Z,400.0000
2023-04-04T01:17:12.699Z,400.0000
2023-04-04T01:18:13.692Z,400.0000
2023-04-04T01:19:14.772Z,400.0000
2023-04-04T01:20:15.977Z,400.0000
2023-04-04T01:21:16.975Z,400.0000
2023-04-04T01:22:18.111Z,400.0000
2023-04-04T01:23:19.163Z,400.0000
2023-04-04T01:24:20.273Z,400.0000
2023-04-04T01:25:21.351Z,400.0000
2023-04-04T01:26:22.462Z,400.0000
2023-04-04T01:27:23.710Z,400.0000
2023-04-04T01:28:24.659Z,400.0000
2023-04-04T01:29:25.755Z,400.0000
2023-04-04T01:30:26.861Z,400.0000
2023-04-04T01:31:27.982Z,400.0000
2023-04-04T01:32:29.098Z,400.0000
2023-04-04T01:33:30.151Z,400.0000
2023-04-04T01:34:31.248Z,400.0000
2023-04-04T01:35:32.382Z,400.0000
2023-04-04T01:36:33.449Z,400.0000
2023-04-04T01:37:34.547Z,400.0000
2023-04-04T01:38:35.635Z,400.0000
2023-04-04T01:39:36.726Z,400.0000
2023-04-04T01:40:38.026Z,400.0000
2023-04-04T01:41:39.045Z,400.0000
2023-04-04T01:42:40.558Z,400.0000
2023-04-04T01:43:41.116Z,400.0000
2023-04-04T01:44:42.217Z,400.0000
2023-04-04T01:45:43.324Z,400.0000
2023-04-04T01:46:44.409Z,400.0000
2023-04-04T01:47:45.591Z,400.0000
2023-04-04T01:48:46.606Z,400.0000
2023-04-04T01:49:47.689Z,400.0000
2023-04-04T01:50:48.802Z,400.0000
2023-04-04T01:51:49.880Z,400.0000
2023-04-04T01:52:51.075Z,400.0000
2023-04-04T01:53:52.144Z,400.0000
2023-04-04T01:54:53.251Z,400.0000
2023-04-04T01:55:54.342Z,400.0000
2023-04-04T01:56:55.448Z,400.0000
2023-04-04T01:57:56.553Z,400.0000
2023-04-04T01:58:57.704Z,400.0000
2023-04-04T01:59:58.734Z,400.0000
2023-04-04T02:00:59.831Z,400.0000
2023-04-04T02:02:00.927Z,400.0000
2023-04-04T02:03:02.128Z,400.0000
2023-04-04T02:04:03.135Z,400.0000
2023-04-04T02:05:04.226Z,400.0000
2023-04-04T02:06:05.297Z,400.0000
2023-04-04T02:07:06.434Z,400.0000
2023-04-04T02:08:07.502Z,400.0000
2023-04-04T02:09:08.628Z,400.0000
2023-04-04T02:10:09.689Z,400.0000
2023-04-04T02:11:10.790Z,400.0000
2023-04-04T02:12:11.906Z,400.0000
2023-04-04T02:13:13.044Z,400.0000
2023-04-04T02:14:14.114Z,400.0000
2023-04-04T02:15:15.193Z,400.0000
2023-04-04T02:16:16.308Z,400.0000
2023-04-04T02:17:17.380Z,400.0000
2023-04-04T02:18:18.500Z,400.0000
2023-04-04T02:19:19.571Z,400.0000
2023-04-04T02:20:20.653Z,400.0000
2023-04-04T02:21:21.769Z,400.0000
2023-04-04T02:22:22.850Z,400.0000
2023-04-04T02:23:23.986Z,400.0000
2023-04-04T02:24:25.060Z,400.0000
2023-04-04T02:25:26.163Z,400.0000
2023-04-04T02:26:27.245Z,400.0000
2023-04-04T02:27:28.364Z,400.0000
2023-04-04T02:28:29.471Z,400.0000
2023-04-04T02:29:30.588Z,400.0000
2023-04-04T02:30:31.639Z,400.0000
2023-04-04T02:31:32.803Z,400.0000
2023-04-04T02:32:33.841Z,400.0000
2023-04-04T02:33:34.963Z,400.0000
2023-04-04T02:34:36.039Z,400.0000
2023-04-04T02:35:37.196Z,400.0000
2023-04-04T02:36:38.248Z,400.0000
2023-04-04T02:37:39.340Z,400.0000
2023-04-04T02:38:40.439Z,400.0000
2023-04-04T02:39:41.528Z,400.0000
2023-04-04T02:40:42.887Z,400.0000
2023-04-04T02:41:43.730Z,400.0000
2023-04-04T02:42:44.838Z,400.0000
2023-04-04T02:43:45.940Z,400.0000
2023-04-04T02:44:47.002Z,400.0000
2023-04-04T02:45:48.123Z,400.0000
2023-04-04T02:46:49.234Z,400.0000
2023-04-04T02:47:50.348Z,400.0000
2023-04-04T02:48:51.411Z,400.0000
2023-04-04T02:49:52.502Z,400.0000
2023-04-04T02:50:53.586Z,400.0000
2023-04-04T02:51:54.692Z,400.0000
2023-04-04T02:52:55.778Z,400.0000
2023-04-04T02:53:56.921Z,400.0000
2023-04-04T02:54:57.968Z,400.0000
2023-04-04T02:55:59.086Z,400.0000
2023-04-04T02:57:00.163Z,400.0000
2023-04-04T02:58:01.273Z,400.0000
2023-04-04T02:59:02.414Z,400.0000
2023-04-04T03:00:03.476Z,400.0000
2023-04-04T03:01:04.586Z,400.0000
2023-04-04T03:02:05.731Z,400.0000
2023-04-04T03:03:06.853Z,400.0000
2023-04-04T03:04:07.956Z,400.0000
2023-04-04T03:05:08.960Z,400.0000
2023-04-04T03:06:10.072Z,400.0000
2023-04-04T03:07:11.155Z,400.0000
2023-04-04T03:08:12.264Z,400.0000
2023-04-04T03:09:13.368Z,400.0000
2023-04-04T03:10:14.468Z,400.0000
2023-04-04T03:11:15.553Z,452.4615
2023-04-04T03:12:16.668Z,400.0000
2023-04-04T03:13:17.750Z,400.0000
2023-04-04T03:14:18.937Z,400.0000
2023-04-04T03:15:19.949Z,400.0000
2023-04-04T03:16:21.055Z,400.0000
2023-04-04T03:17:22.139Z,400.0000
2023-04-04T03:18:23.254Z,400.0000
2023-04-04T03:19:24.378Z,400.0000
2023-04-04T03:20:25.461Z,400.0000
2023-04-04T03:21:26.526Z,400.0000
2023-04-04T03:22:27.661Z,400.0000
2023-04-04T03:23:28.739Z,400.0000
2023-04-04T03:24:29.884Z,400.0000
2023-04-04T03:25:30.939Z,400.0000
2023-04-04T03:26:32.058Z,400.0000
2023-04-04T03:27:33.131Z,400.0000
2023-04-04T03:28:34.246Z,400.0000
2023-04-04T03:29:35.385Z,400.0000
2023-04-04T03:30:36.455Z,400.0000
2023-04-04T03:31:37.570Z,400.0000
2023-04-04T03:32:38.704Z,400.0000
2023-04-04T03:33:39.762Z,400.0000
2023-04-04T03:34:40.879Z,400.0000
2023-04-04T03:35:41.984Z,400.0000
2023-04-04T03:36:43.077Z,400.0000
2023-04-04T03:37:44.135Z,400.0000
2023-04-04T03:38:45.235Z,400.0000
2023-04-04T03:39:46.346Z,400.0000
2023-04-04T03:40:47.438Z,400.0000
2023-04-04T03:41:48.524Z,400.0000
2023-04-04T03:42:49.657Z,400.0000
2023-04-04T03:43:50.719Z,400.0000
2023-04-04T03:44:51.866Z,400.0000
2023-04-04T03:45:52.969Z,400.0000
2023-04-04T03:46:54.038Z,400.0000
2023-04-04T03:47:55.156Z,400.0000
2023-04-04T03:48:56.235Z,400.0000
2023-04-04T03:49:57.355Z,400.0000
2023-04-04T03:50:58.432Z,400.0000
2023-04-04T03:51:59.548Z,400.0000
2023-04-04T03:53:00.674Z,400.0000
2023-04-04T03:54:01.725Z,400.0000
2023-04-04T03:55:02.862Z,400.0000
2023-04-04T03:56:03.923Z,400.0000
2023-04-04T03:57:05.032Z,400.0000
2023-04-04T03:58:06.118Z,400.0000
2023-04-04T03:59:07.289Z,400.0000
2023-04-04T04:00:08.353Z,400.0000
2023-04-04T04:01:09.494Z,400.0000
2023-04-04T04:02:10.546Z,400.0000
2023-04-04T04:03:11.834Z,400.0000
2023-04-04T04:04:12.758Z,400.0000
2023-04-04T04:05:13.875Z,400.0000
2023-04-04T04:06:14.928Z,400.0000
2023-04-04T04:07:16.061Z,400.0000
2023-04-04T04:08:17.138Z,400.0000
2023-04-04T04:09:18.258Z,400.0000
2023-04-04T04:10:19.388Z,400.0000
2023-04-04T04:11:20.476Z,400.0000
2023-04-04T04:12:21.551Z,400.0000
2023-04-04T04:13:22.669Z,400.0000
2023-04-04T04:14:23.764Z,400.0000
2023-04-04T04:15:24.922Z,400.0000
2023-04-04T04:16:26.047Z,400.0000
2023-04-04T04:17:27.076Z,400.0000
2023-04-04T04:18:28.196Z,400.0000
2023-04-04T04:19:29.269Z,400.0000
2023-04-04T04:20:30.366Z,400.0000
2023-04-04T04:21:31.468Z,400.0000
2023-04-04T04:22:32.551Z,400.0000
2023-04-04T04:23:33.660Z,400.0000
2023-04-04T04:24:34.736Z,400.0000
2023-04-04T04:25:35.865Z,400.0000
2023-04-04T04:26:36.937Z,400.0000
2023-04-04T04:27:38.051Z,400.0000
2023-04-04T04:28:39.675Z,400.0000
2023-04-04T04:29:40.248Z,400.0000
2023-04-04T04:30:41.570Z,400.0000
2023-04-04T04:31:42.482Z,400.0000
2023-04-04T04:32:43.569Z,400.0000
2023-04-04T04:33:44.663Z,400.0000
2023-04-04T04:34:45.748Z,400.0000
2023-04-04T04:35:46.884Z,413.0000
2023-04-04T04:36:47.955Z,401.6923
2023-04-04T04:37:49.076Z,400.0000
2023-04-04T04:38:50.153Z,400.0000
2023-04-04T04:39:51.266Z,400.0000
2023-04-04T04:40:52.365Z,400.0000
2023-04-04T04:41:53.467Z,400.0000
2023-04-04T04:42:54.553Z,400.0000
2023-04-04T04:43:55.672Z,400.0000
2023-04-04T04:44:56.753Z,400.0000
2023-04-04T04:45:57.881Z,400.0000
2023-04-04T04:46:58.988Z,400.0000
2023-04-04T04:48:00.119Z,400.0000
2023-04-04T04:49:01.202Z,400.0000
2023-04-04T04:50:02.265Z,400.0000
2023-04-04T04:51:03.784Z,400.0000
2023-04-04T04:52:04.459Z,400.0000
2023-04-04T04:53:05.553Z,400.0000
2023-04-04T04:54:06.667Z,400.0000
2023-04-04T04:55:07.745Z,400.0000
2023-04-04T04:56:08.885Z,400.0000
2023-04-04T04:57:10.744Z,400.0000
2023-04-04T04:58:12.541Z,400.0000
2023-04-04T04:59:12.153Z,400.0000
2023-04-04T05:00:13.247Z,400.0000
2023-04-04T05:01:14.371Z,400.0000
2023-04-04T05:02:15.470Z,400.0000
2023-04-04T05:03:16.549Z,400.0000
2023-04-04T05:04:17.663Z,400.0000
2023-04-04T05:05:18.723Z,400.0000
2023-04-04T05:06:20.293Z,400.0000
2023-04-04T05:07:20.919Z,400.0000
2023-04-04T05:08:22.023Z,400.0000
2023-04-04T05:09:23.116Z,400.0000
2023-04-04T05:10:24.216Z,400.0000
2023-04-04T05:11:25.319Z,400.0000
2023-04-04T05:12:26.412Z,400.0000
2023-04-04T05:13:27.487Z,400.0000
2023-04-04T05:14:28.603Z,400.0000
2023-04-04T05:15:29.692Z,400.0000
2023-04-04T05:16:30.867Z,400.0000
2023-04-04T05:17:31.898Z,400.0000
2023-04-04T05:18:32.974Z,400.0000
2023-04-04T05:19:34.124Z,400.0000
2023-04-04T05:20:35.182Z,400.0000
2023-04-04T05:21:36.294Z,400.0000
2023-04-04T05:22:37.374Z,400.0000
2023-04-04T05:23:43.295Z,400.0000
2023-04-04T05:24:39.559Z,400.0000
2023-04-04T05:25:40.665Z,400.0000
2023-04-04T05:26:41.778Z,400.0000
2023-04-04T05:27:42.845Z,400.0000
2023-04-04T05:28:43.959Z,400.0000
2023-04-04T05:29:45.032Z,400.0000
2023-04-04T05:30:46.165Z,400.0000
2023-04-04T05:31:47.322Z,400.0000
2023-04-04T05:32:48.368Z,400.0000
2023-04-04T05:33:49.445Z,400.0000
2023-04-04T05:34:50.550Z,400.0000
2023-04-04T05:35:51.742Z,400.0000
2023-04-04T05:36:52.747Z,400.0000
2023-04-04T05:37:53.841Z,400.0000
2023-04-04T05:38:54.913Z,400.0000
2023-04-04T05:39:56.032Z,400.0000
2023-04-04T05:40:57.112Z,400.0000
2023-04-04T05:41:58.261Z,400.0000
2023-04-04T05:42:59.303Z,400.0000
2023-04-04T05:44:00.458Z,400.0000
2023-04-04T05:45:01.525Z,400.0000
2023-04-04T05:46:02.674Z,400.0000
2023-04-04T05:47:03.718Z,400.0000
2023-04-04T05:48:05.819Z,400.0000
2023-04-04T05:49:05.907Z,400.0000
2023-04-04T05:50:07.009Z,400.0000
2023-04-04T05:51:08.275Z,400.0000
2023-04-04T05:52:09.218Z,400.0000
2023-04-04T05:53:10.373Z,400.0000
2023-04-04T05:54:11.489Z,400.0000
2023-04-04T05:55:12.563Z,400.0000
2023-04-04T05:56:13.657Z,400.0000
2023-04-04T05:57:14.787Z,400.0000
2023-04-04T05:58:15.874Z,400.0000
2023-04-04T05:59:16.980Z,400.0000
2023-04-04T06:00:18.062Z,400.0000
2023-04-04T06:01:19.143Z,400.0000
2023-04-04T06:02:20.308Z,400.0000
2023-04-04T06:03:22.232Z,400.0000
2023-04-04T06:04:22.451Z,400.0000
2023-04-04T06:05:23.542Z,400.0000
2023-04-04T06:06:24.708Z,400.0000
2023-04-04T06:07:25.774Z,400.0000
2023-04-04T06:08:26.877Z,400.0000
2023-04-04T06:09:27.938Z,400.0000
2023-04-04T06:10:29.060Z,400.0000
2023-04-04T06:11:30.162Z,400.0000
2023-04-04T06:12:31.280Z,400.0000
2023-04-04T06:13:32.342Z,400.0000
2023-04-04T06:14:33.453Z,400.0000
2023-04-04T06:15:34.544Z,400.0000
2023-04-04T06:16:35.710Z,400.0000
2023-04-04T06:17:36.803Z,400.0000
2023-04-04T06:18:37.839Z,400.0000
2023-04-04T06:19:39.732Z,400.0000
2023-04-04T06:20:40.245Z,400.0000
2023-04-04T06:21:41.119Z,400.0000
2023-04-04T06:22:42.323Z,400.0000
2023-04-04T06:23:43.331Z,400.0000
2023-04-04T06:24:44.433Z,400.0000
2023-04-04T06:25:45.522Z,400.0000
2023-04-04T06:26:46.629Z,400.0000
2023-04-04T06:27:47.728Z,400.0000
2023-04-04T06:28:48.918Z,400.0000
2023-04-04T06:29:49.922Z,400.0000
2023-04-04T06:30:51.027Z,400.0000
2023-04-04T06:31:52.178Z,400.0000
2023-04-04T06:32:53.295Z,400.0000
2023-04-04T06:33:54.324Z,400.0000
2023-04-04T06:34:55.430Z,400.0000
2023-04-04T06:35:56.518Z,400.0000
2023-04-04T06:36:57.622Z,400.0000
2023-04-04T06:37:58.720Z,400.0000
2023-04-04T06:38:59.824Z,400.0000
2023-04-04T06:40:00.905Z,400.0000
2023-04-04T06:41:02.006Z,400.0000
2023-04-04T06:42:03.081Z,400.0000
2023-04-04T06:43:04.236Z,400.0000
2023-04-04T06:44:05.284Z,439.3846
2023-04-04T06:45:06.406Z,404.3077
2023-04-04T06:46:07.484Z,400.0000
2023-04-04T06:47:08.594Z,400.0000
2023-04-04T06:48:09.718Z,400.0000
2023-04-04T06:49:10.797Z,400.0000
2023-04-04T06:50:11.888Z,400.0000
2023-04-04T06:51:12.988Z,400.0000
2023-04-04T06:52:14.064Z,400.0000
2023-04-04T06:53:15.210Z,400.0000
2023-04-04T06:54:16.258Z,400.0000
2023-04-04T06:55:17.369Z,400.0000
2023-04-04T06:56:18.450Z,400.0000
2023-04-04T06:57:19.577Z,400.0000
2023-04-04T06:58:20.679Z,400.0000
2023-04-04T06:59:21.817Z,400.0000
2023-04-04T07:00:22.851Z,400.0000
2023-04-04T07:01:23.953Z,400.0000
2023-04-04T07:02:25.061Z,400.0000
2023-04-04T07:03:26.189Z,400.0000
2023-04-04T07:04:27.254Z,400.0000
2023-04-04T07:05:28.346Z,400.0000
2023-04-04T07:06:29.448Z,400.0000
2023-04-04T07:07:30.554Z,400.0000
2023-04-04T07:08:35.597Z,400.0000
2023-04-04T07:09:32.800Z,400.0000
2023-04-04T07:10:33.838Z,400.0000
2023-04-04T07:11:34.950Z,400.0000
2023-04-04T07:12:36.025Z,400.0000
2023-04-04T07:13:37.172Z,400.0000
2023-04-04T07:14:38.222Z,400.0000
2023-04-04T07:15:39.339Z,400.0000
2023-04-04T07:16:40.516Z,400.0000
2023-04-04T07:17:41.577Z,400.0000
2023-04-04T07:18:42.679Z,421.9231
2023-04-04T07:19:43.721Z,513.0000
2023-04-04T07:20:44.802Z,540.0769
2023-04-04T07:21:45.923Z,536.1539
2023-04-04T07:22:46.996Z,681.7692
2023-04-04T07:23:48.136Z,590.4615
2023-04-04T07:24:49.198Z,544.3077
2023-04-04T07:25:50.299Z,568.0769
2023-04-04T07:26:51.381Z,567.0769
2023-04-04T07:27:57.314Z,541.2308
2023-04-04T07:28:54.605Z,519.6154
2023-04-04T07:29:54.685Z,541.9231
2023-04-04T07:30:55.787Z,462.6154
2023-04-04T07:31:56.941Z,417.4615
2023-04-04T07:32:58.020Z,416.4615
2023-04-04T07:33:59.109Z,405.7692
2023-04-04T07:35:00.176Z,400.3077
2023-04-04T07:36:01.358Z,404.2308
2023-04-04T07:37:02.365Z,402.2308
2023-04-04T07:38:03.462Z,400.0000
2023-04-04T07:39:04.599Z,400.0000
2023-04-04T07:40:05.668Z,400.0000
2023-04-04T07:41:06.741Z,400.0000
2023-04-04T07:42:07.864Z,400.0000
2023-04-04T07:43:08.957Z,400.0000
2023-04-04T07:44:10.056Z,400.0000
2023-04-04T07:45:11.160Z,400.0000
2023-04-04T07:46:12.320Z,422.0769
2023-04-04T07:47:13.320Z,439.4615
2023-04-04T07:48:14.441Z,479.2308
2023-04-04T07:49:15.559Z,539.4615
2023-04-04T07:50:16.640Z,568.4615
2023-04-04T07:51:17.721Z,568.8461
2023-04-04T07:52:18.834Z,547.1539
2023-04-04T07:53:19.918Z,598.2308
2023-04-04T07:54:21.055Z,672.3846
2023-04-04T07:55:22.105Z,651.9231
2023-04-04T07:56:23.205Z,676.7692
2023-04-04T07:57:24.286Z,663.9231
2023-04-04T07:58:25.398Z,633.8461
2023-04-04T07:59:26.624Z,610.5385
2023-04-04T08:00:27.584Z,571.6154
2023-04-04T08:01:28.677Z,516.4615
2023-04-04T08:02:29.892Z,497.4615
2023-04-04T08:03:31.276Z,509.0769
2023-04-04T08:04:32.089Z,503.2308
2023-04-04T08:05:33.073Z,469.6923
2023-04-04T08:06:34.198Z,448.2308
2023-04-04T08:07:35.291Z,432.9231
2023-04-04T08:08:36.369Z,405.7692
2023-04-04T08:09:37.475Z,432.9231
2023-04-04T08:10:38.836Z,448.2308
2023-04-04T08:11:39.683Z,448.1538
2023-04-04T08:12:40.786Z,441.4615
2023-04-04T08:13:41.840Z,460.6923
2023-04-04T08:14:42.967Z,472.8462
2023-04-04T08:15:44.098Z,483.3077
2023-04-04T08:16:45.151Z,488.4615
2023-04-04T08:17:46.259Z,496.4615
2023-04-04T08:18:47.365Z,500.7692
2023-04-04T08:19:48.484Z,540.4615
2023-04-04T08:20:49.545Z,530.7692
2023-04-04T08:21:50.636Z,468.9231
2023-04-04T08:22:51.731Z,486.6154
2023-04-04T08:23:52.839Z,502.3846
2023-04-04T08:24:53.945Z,500.3846
2023-04-04T08:25:55.017Z,494.8462
2023-04-04T08:27:04.677Z,451.9231
2023-04-04T08:27:58.272Z,435.0000
2023-04-04T08:28:58.315Z,432.5385
2023-04-04T08:29:59.425Z,425.8462
2023-04-04T08:31:00.526Z,432.6154
2023-04-04T08:32:01.567Z,415.8462
2023-04-04T08:33:05.512Z,400.0000
2023-04-04T08:34:03.760Z,400.0000
2023-04-04T08:35:04.895Z,400.0000
2023-04-04T08:36:05.978Z,400.0000
2023-04-04T08:37:07.055Z,400.0000
2023-04-04T08:38:08.140Z,400.0000
2023-04-04T08:39:09.255Z,400.0000
2023-04-04T08:40:10.370Z,400.0000
2023-04-04T08:41:11.460Z,400.0000
2023-04-04T08:42:12.533Z,400.0000
2023-04-04T08:43:13.640Z,400.0000
2023-04-04T08:44:14.719Z,400.0000
2023-04-04T08:45:15.867Z,400.0000
2023-04-04T08:46:16.922Z,400.0000
2023-04-04T08:47:18.019Z,400.0000
2023-04-04T08:48:19.107Z,400.0000
2023-04-04T08:49:20.225Z,400.0000
2023-04-04T08:50:21.307Z,400.0000
2023-04-04T08:51:22.381Z,400.0000
2023-04-04T08:52:23.478Z,400.0000
2023-04-04T08:53:24.588Z,400.0000
2023-04-04T08:54:25.663Z,400.0000
2023-04-04T08:55:26.788Z,400.0000
2023-04-04T08:56:27.858Z,400.0000
2023-04-04T08:57:28.962Z,400.0000
2023-04-04T08:58:30.048Z,400.0000
2023-04-04T08:59:31.189Z,400.0000
2023-04-04T09:00:32.257Z,400.0000
2023-04-04T09:01:33.430Z,400.0000
2023-04-04T09:02:34.625Z,400.0000
2023-04-04T09:03:35.555Z,400.0000
2023-04-04T09:04:36.628Z,400.0000
2023-04-04T09:05:37.750Z,400.0000
2023-04-04T09:06:38.821Z,400.0000
2023-04-04T09:07:40.022Z,400.0000
2023-04-04T09:08:41.028Z,400.0000
2023-04-04T09:09:42.114Z,400.0000
2023-04-04T09:10:43.232Z,400.0000
2023-04-04T09:11:44.312Z,400.0000
2023-04-04T09:12:45.440Z,400.0000
2023-04-04T09:13:46.529Z,400.0000
2023-04-04T09:14:47.624Z,400.0000
2023-04-04T09:15:48.753Z,400.0000
2023-04-04T09:16:49.876Z,400.0000
2023-04-04T09:17:50.971Z,400.0000
2023-04-04T09:18:52.083Z,400.0000
2023-04-04T09:19:53.182Z,400.0000
2023-04-04T09:20:59.435Z,400.0000
2023-04-04T09:21:55.390Z,400.0000
2023-04-04T09:22:56.487Z,400.0000
2023-04-04T09:23:57.604Z,400.0000
2023-04-04T09:24:58.694Z,400.0000
2023-04-04T09:26:04.333Z,400.0000
2023-04-04T09:27:01.915Z,400.0000
2023-04-04T09:28:02.030Z,400.0000
2023-04-04T09:29:03.124Z,400.0000
2023-04-04T09:30:05.837Z,400.0000
2023-04-04T09:31:05.368Z,400.0000
2023-04-04T09:32:06.468Z,400.0000
2023-04-04T09:33:07.587Z,400.0000
2023-04-04T09:34:08.663Z,400.0000
2023-04-04T09:35:09.821Z,400.0000
2023-04-04T09:36:10.929Z,400.0000
2023-04-04T09:37:11.969Z,400.0000
2023-04-04T09:38:13.097Z,400.0000
2023-04-04T09:39:14.199Z,400.0000
2023-04-04T09:40:15.342Z,400.0000
2023-04-04T09:41:16.464Z,400.0000
2023-04-04T09:42:17.689Z,400.0000
2023-04-04T09:43:18.619Z,400.0000
2023-04-04T09:44:19.765Z,400.0000
2023-04-04T09:45:31.642Z,400.0000
2023-04-04T09:46:22.990Z,400.0000
2023-04-04T09:47:30.355Z,400.0000
2023-04-04T09:48:25.169Z,400.0000
2023-04-04T09:49:25.291Z,400.0000
2023-04-04T09:50:26.386Z,400.0000
2023-04-04T09:51:27.893Z,400.0000
2023-04-04T09:52:28.586Z,400.0000
2023-04-04T09:53:29.782Z,400.0000
2023-04-04T09:54:31.517Z,400.0000
2023-04-04T09:55:31.998Z,400.0000
2023-04-04T09:56:33.278Z,400.0000
2023-04-04T09:57:34.207Z,400.0000
2023-04-04T09:58:35.297Z,400.0000
2023-04-04T09:59:36.437Z,400.0000
2023-04-04T10:00:37.932Z,400.0000
2023-04-04T10:01:38.679Z,400.0000
2023-04-04T10:02:39.758Z,400.0000
2023-04-04T10:03:40.883Z,400.0000
2023-04-04T10:04:41.948Z,400.0000
2023-04-04T10:05:43.076Z,400.0000
2023-04-04T10:06:44.190Z,400.0000
2023-04-04T10:07:45.306Z,400.0000
2023-04-04T10:08:46.420Z,400.0000
2023-04-04T10:09:47.506Z,400.0000
2023-04-04T10:10:58.729Z,400.0000
2023-04-04T10:11:50.757Z,400.0000
2023-04-04T10:12:50.829Z,400.0000
2023-04-04T10:13:51.969Z,400.0000
2023-04-04T10:14:53.068Z,400.0000
2023-04-04T10:15:54.243Z,400.0000
2023-04-04T10:16:55.278Z,400.0000
2023-04-04T10:17:56.442Z,400.0000
2023-04-04T10:18:57.516Z,400.0000
2023-04-04T10:19:58.614Z,400.0000
2023-04-04T10:21:08.180Z,400.0000
2023-04-04T10:22:01.890Z,400.0000
2023-04-04T10:23:01.922Z,400.0000
2023-04-04T10:24:03.069Z,400.0000
2023-04-04T10:25:04.148Z,400.0000
2023-04-04T10:26:05.289Z,400.0000
2023-04-04T10:27:06.378Z,400.0000
2023-04-04T10:28:07.480Z,400.0000
2023-04-04T10:29:08.577Z,400.0000
2023-04-04T10:30:09.688Z,400.0000
2023-04-04T10:31:10.895Z,400.0000
2023-04-04T10:32:11.990Z,400.0000
2023-04-04T10:33:12.981Z,400.0000
2023-04-04T10:34:14.108Z,400.0000
2023-04-04T10:35:15.195Z,400.0000
2023-04-04T10:36:16.372Z,400.0000
2023-04-04T10:37:17.455Z,400.0000
2023-04-04T10:38:18.534Z,400.0000
2023-04-04T10:39:19.629Z,400.0000
2023-04-04T10:40:20.752Z,400.0000
2023-04-04T10:41:21.827Z,400.0000
2023-04-04T10:42:22.968Z,400.0000
2023-04-04T10:43:24.023Z,400.0000
2023-04-04T10:44:25.141Z,400.0000
2023-04-04T10:45:26.201Z,400.0000
2023-04-04T10:46:27.375Z,400.0000
2023-04-04T10:47:28.430Z,400.0000
2023-04-04T10:48:29.520Z,400.0000
2023-04-04T10:49:30.609Z,400.0000
2023-04-04T10:50:31.714Z,400.0000
2023-04-04T10:51:37.120Z,400.0000
2023-04-04T10:52:35.408Z,400.0000
2023-04-04T10:53:35.012Z,400.0000
2023-04-04T10:54:36.101Z,400.0000
2023-04-04T10:55:37.685Z,400.0000
2023-04-04T10:56:38.284Z,400.0000
2023-04-04T10:57:39.425Z,400.0000
2023-04-04T10:58:40.482Z,400.0000
2023-04-04T10:59:41.569Z,400.0000
2023-04-04T11:00:42.712Z,400.0000
2023-04-04T11:01:43.775Z,400.0000
2023-04-04T11:02:45.055Z,400.0000
2023-04-04T11:03:46.003Z,400.0000
2023-04-04T11:04:47.077Z,400.0000
2023-04-04T11:05:48.167Z,400.0000
2023-04-04T11:06:49.263Z,400.0000
2023-04-04T11:08:04.399Z,400.0000
2023-04-04T11:08:52.469Z,400.0000
2023-04-04T11:09:52.564Z,400.0000
2023-04-04T11:10:53.689Z,400.0000
2023-04-04T11:11:55.326Z,400.0000
2023-04-04T11:13:09.316Z,400.0000
2023-04-04T11:13:57.957Z,400.0000
2023-04-04T11:14:58.124Z,400.0000
2023-04-04T11:15:59.129Z,400.0000
2023-04-04T11:17:00.288Z,400.0000
2023-04-04T11:18:04.299Z,400.0000
2023-04-04T11:19:03.460Z,400.0000
2023-04-04T11:20:03.537Z,400.0000
2023-04-04T11:21:04.651Z,400.0000
2023-04-04T11:22:05.744Z,400.0000
2023-04-04T11:23:06.911Z,400.0000
2023-04-04T11:24:07.934Z,400.0000
2023-04-04T11:25:09.042Z,400.0000
2023-04-04T11:26:10.132Z,400.0000
2023-04-04T11:27:11.912Z,400.0000
2023-04-04T11:28:12.362Z,400.0000
2023-04-04T11:29:13.441Z,400.0000
2023-04-04T11:30:14.530Z,400.0000
2023-04-04T11:31:15.684Z,400.0000
2023-04-04T11:32:16.816Z,400.0000
2023-04-04T11:33:17.869Z,400.0000
2023-04-04T11:34:18.936Z,400.0000
2023-04-04T11:35:20.039Z,400.0000
2023-04-04T11:36:21.165Z,400.0000
2023-04-04T11:37:22.248Z,400.0000
2023-04-04T11:38:23.380Z,400.0000
2023-04-04T11:39:24.433Z,400.0000
2023-04-04T11:40:25.526Z,400.0000
2023-04-04T11:41:26.633Z,400.0000
2023-04-04T11:42:27.721Z,400.0000
2023-04-04T11:43:28.854Z,400.0000
2023-04-04T11:44:30.033Z,400.0000
2023-04-04T11:45:31.038Z,400.0000
2023-04-04T11:46:32.187Z,400.0000
2023-04-04T11:47:33.272Z,400.0000
2023-04-04T11:48:34.335Z,400.0000
2023-04-04T11:49:35.451Z,400.0000
2023-04-04T11:50:36.508Z,400.0000
2023-04-04T11:51:37.626Z,400.0000
2023-04-04T11:52:38.724Z,400.0000
2023-04-04T11:53:39.848Z,400.0000
2023-04-04T11:54:40.907Z,400.0000
2023-04-04T11:55:42.081Z,400.0000
2023-04-04T11:56:43.120Z,400.0000
2023-04-04T11:57:44.243Z,400.0000